createdAt,value
2018-07-31T00:01:51.903Z,24.10
2018-07-31T00:04:20.254Z,24.04
2018-07-31T00:06:48.625Z,24.00
2018-07-31T00:09:16.977Z,23.97
2018-07-31T00:11:45.297Z,23.93
2018-07-31T00:14:13.621Z,23.89
2018-07-31T00:16:41.945Z,23.83
2018-07-31T00:19:10.264Z,23.89
2018-07-31T00:21:38.607Z,23.96
2018-07-31T00:24:06.939Z,24.04
2018-07-31T00:26:35.272Z,24.07
2018-07-31T00:29:03.028Z,24.06
2018-07-31T00:31:31.929Z,24.06
2018-07-31T00:34:00.260Z,24.08
2018-07-31T00:36:28.593Z,24.07
2018-07-31T00:38:56.933Z,24.04
2018-07-31T00:41:24.705Z,24.03
2018-07-31T00:43:53.052Z,24.06
2018-07-31T00:46:21.389Z,24.04
2018-07-31T00:48:50.311Z,24.02
2018-07-31T00:51:18.662Z,24.00
2018-07-31T00:53:46.430Z,23.91
2018-07-31T00:56:15.345Z,23.76
2018-07-31T00:58:43.699Z,23.68
2018-07-31T01:01:12.015Z,23.62
2018-07-31T01:03:40.372Z,23.56
2018-07-31T01:06:08.699Z,23.48
2018-07-31T01:08:36.497Z,23.38
2018-07-31T01:11:05.471Z,23.26
2018-07-31T01:13:33.750Z,23.18
2018-07-31T01:16:02.109Z,23.13
2018-07-31T01:18:30.072Z,23.09
2018-07-31T01:20:58.768Z,23.01
2018-07-31T01:23:26.521Z,22.92
2018-07-31T01:25:54.852Z,22.80
2018-07-31T01:28:23.771Z,22.78
2018-07-31T01:30:52.109Z,22.80
2018-07-31T01:33:20.451Z,22.78
2018-07-31T01:35:48.789Z,22.77
2018-07-31T01:38:18.716Z,22.82
2018-07-31T01:40:45.466Z,22.84
2018-07-31T01:43:13.786Z,22.82
2018-07-31T01:45:42.166Z,22.80
2018-07-31T01:48:10.476Z,22.76
2018-07-31T01:50:38.809Z,22.70
2018-07-31T01:53:07.141Z,22.71
2018-07-31T01:55:34.885Z,22.82
2018-07-31T01:58:03.800Z,22.92
2018-07-31T02:00:32.125Z,22.96
2018-07-31T02:03:00.143Z,22.98
2018-07-31T02:05:28.781Z,22.94
2018-07-31T02:07:57.116Z,22.99
2018-07-31T02:10:25.485Z,23.07
2018-07-31T02:12:53.805Z,23.13
2018-07-31T02:15:22.146Z,23.00
2018-07-31T02:17:50.470Z,22.86
2018-07-31T02:20:18.799Z,22.82
2018-07-31T02:22:47.114Z,22.72
2018-07-31T02:25:15.450Z,22.62
2018-07-31T02:27:43.763Z,22.49
2018-07-31T02:30:12.090Z,22.40
2018-07-31T02:35:08.735Z,22.43
2018-07-31T02:37:37.060Z,22.47
2018-07-31T02:40:05.386Z,22.41
2018-07-31T02:42:33.715Z,22.41
2018-07-31T02:45:02.035Z,22.52
2018-07-31T02:47:30.366Z,22.64
2018-07-31T02:49:58.700Z,22.73
2018-07-31T02:52:27.025Z,22.81
2018-07-31T02:54:55.368Z,22.85
2018-07-31T02:57:23.680Z,22.84
2018-07-31T02:59:51.428Z,22.86
2018-07-31T03:02:19.733Z,22.87
2018-07-31T03:04:48.058Z,22.64
2018-07-31T03:07:16.965Z,22.41
2018-07-31T03:09:44.718Z,22.24
2018-07-31T03:12:13.647Z,22.07
2018-07-31T03:14:41.998Z,21.95
2018-07-31T03:17:09.950Z,21.89
2018-07-31T03:19:38.670Z,21.86
2018-07-31T03:22:06.987Z,21.87
2018-07-31T03:24:35.302Z,21.88
2018-07-31T03:27:03.633Z,21.90
2018-07-31T03:29:32.004Z,21.90
2018-07-31T03:32:00.311Z,21.91
2018-07-31T03:34:30.744Z,21.88
2018-07-31T03:36:56.365Z,21.84
2018-07-31T03:39:25.864Z,21.85
2018-07-31T03:41:53.603Z,21.89
2018-07-31T03:44:21.351Z,21.92
2018-07-31T03:46:49.669Z,21.96
2018-07-31T03:49:18.565Z,22.02
2018-07-31T03:51:46.874Z,22.11
2018-07-31T03:54:17.050Z,22.29
2018-07-31T03:56:43.634Z,22.46
2018-07-31T03:59:11.368Z,22.56
2018-07-31T04:01:40.350Z,22.69
2018-07-31T04:04:08.671Z,22.70
2018-07-31T04:06:36.991Z,22.71
2018-07-31T04:09:05.321Z,22.75
2018-07-31T04:11:33.066Z,22.86
2018-07-31T04:14:02.017Z,22.89
2018-07-31T04:16:29.766Z,22.85
2018-07-31T04:18:58.957Z,22.84
2018-07-31T04:21:27.078Z,22.91
2018-07-31T04:24:05.942Z,23.01
2018-07-31T04:26:33.754Z,23.09
2018-07-31T04:29:02.636Z,23.17
2018-07-31T04:31:30.491Z,23.20
2018-07-31T04:34:00.032Z,23.32
2018-07-31T04:36:27.046Z,23.36
2018-07-31T04:38:55.369Z,23.47
2018-07-31T04:41:23.919Z,23.55
2018-07-31T04:43:52.017Z,23.60
2018-07-31T04:46:20.913Z,23.59
2018-07-31T04:48:49.230Z,23.67
2018-07-31T04:51:17.549Z,23.80
2018-07-31T04:53:45.297Z,23.95
2018-07-31T04:56:14.200Z,24.12
2018-07-31T04:58:43.588Z,24.25
2018-07-31T05:01:10.935Z,24.36
2018-07-31T05:03:39.305Z,24.44
2018-07-31T05:06:08.348Z,24.51
2018-07-31T05:08:36.185Z,24.64
2018-07-31T05:11:04.317Z,24.74
2018-07-31T05:13:32.169Z,24.84
2018-07-31T05:16:01.841Z,24.88
2018-07-31T05:18:31.551Z,24.95
2018-07-31T05:20:58.484Z,25.03
2018-07-31T05:23:27.013Z,25.11
2018-07-31T05:25:55.372Z,25.21
2018-07-31T05:28:23.124Z,25.28
2018-07-31T05:30:52.047Z,25.33
2018-07-31T05:33:20.374Z,25.39
2018-07-31T05:35:48.709Z,25.46
2018-07-31T05:38:17.045Z,25.48
2018-07-31T05:40:45.383Z,25.46
2018-07-31T05:43:13.701Z,25.55
2018-07-31T05:45:42.045Z,25.60
2018-07-31T05:48:10.365Z,25.70
2018-07-31T05:50:38.692Z,25.79
2018-07-31T05:53:06.597Z,26.09
2018-07-31T05:55:35.377Z,26.27
2018-07-31T05:58:03.706Z,26.31
2018-07-31T06:00:31.462Z,26.31
2018-07-31T06:03:00.379Z,26.32
2018-07-31T06:05:28.125Z,26.32
2018-07-31T06:07:57.470Z,26.34
2018-07-31T06:10:26.389Z,26.34
2018-07-31T06:12:54.125Z,26.32
2018-07-31T06:15:22.480Z,26.37
2018-07-31T06:17:50.822Z,26.43
2018-07-31T06:20:19.721Z,26.43
2018-07-31T06:22:47.482Z,26.47
2018-07-31T06:31:17.992Z,26.76
2018-07-31T06:33:44.930Z,26.98
2018-07-31T06:36:13.530Z,27.07
2018-07-31T06:41:43.806Z,26.90
2018-07-31T06:44:12.127Z,26.92
2018-07-31T06:46:39.871Z,26.93
2018-07-31T06:49:08.814Z,26.94
2018-07-31T06:51:36.525Z,26.97
2018-07-31T06:54:05.442Z,27.04
2018-07-31T06:56:33.222Z,26.99
2018-07-31T06:59:02.113Z,27.00
2018-07-31T07:01:30.433Z,26.97
2018-07-31T07:03:58.769Z,26.92
2018-07-31T07:06:27.081Z,26.89
2018-07-31T07:08:55.084Z,26.95
2018-07-31T07:11:23.153Z,26.98
2018-07-31T07:13:52.082Z,27.01
2018-07-31T07:16:19.802Z,27.04
2018-07-31T07:18:48.768Z,27.06
2018-07-31T07:21:17.098Z,27.07
2018-07-31T07:23:45.446Z,27.09
2018-07-31T07:26:13.204Z,27.14
2018-07-31T07:28:42.136Z,27.18
2018-07-31T07:31:10.464Z,27.23
2018-07-31T07:33:38.261Z,27.27
2018-07-31T07:36:06.781Z,27.31
2018-07-31T07:38:35.004Z,27.37
2018-07-31T07:41:03.758Z,27.43
2018-07-31T07:43:32.077Z,27.48
2018-07-31T07:46:00.406Z,27.54
2018-07-31T07:48:28.179Z,27.59
2018-07-31T07:50:57.049Z,27.63
2018-07-31T07:53:24.808Z,27.67
2018-07-31T07:55:53.696Z,27.68
2018-07-31T07:58:22.032Z,27.65
2018-07-31T08:00:50.347Z,27.70
2018-07-31T08:03:18.680Z,27.69
2018-07-31T08:05:47.030Z,27.74
2018-07-31T08:08:15.452Z,27.82
2018-07-31T08:10:46.254Z,27.84
2018-07-31T08:13:14.026Z,27.85
2018-07-31T08:15:42.938Z,27.89
2018-07-31T08:18:11.258Z,27.93
2018-07-31T08:20:39.030Z,27.93
2018-07-31T08:23:07.949Z,27.96
2018-07-31T08:25:35.704Z,28.00
2018-07-31T08:28:04.006Z,28.02
2018-07-31T08:30:32.954Z,28.04
2018-07-31T08:33:00.701Z,28.07
2018-07-31T08:35:31.465Z,28.10
2018-07-31T08:38:04.935Z,28.19
2018-07-31T08:40:33.612Z,28.25
2018-07-31T08:43:01.349Z,28.28
2018-07-31T08:45:30.276Z,28.30
2018-07-31T08:47:58.066Z,28.34
2018-07-31T08:50:26.939Z,28.33
2018-07-31T08:52:55.257Z,28.31
2018-07-31T08:55:23.114Z,28.37
2018-07-31T08:57:51.979Z,28.42
2018-07-31T09:00:20.256Z,28.46
2018-07-31T09:02:48.602Z,28.50
2018-07-31T09:05:16.909Z,28.54
2018-07-31T09:07:45.251Z,28.61
2018-07-31T09:10:13.567Z,28.64
2018-07-31T09:12:41.885Z,28.64
2018-07-31T09:15:09.651Z,28.70
2018-07-31T09:17:38.609Z,28.75
2018-07-31T09:20:06.468Z,28.74
2018-07-31T09:22:35.284Z,28.78
2018-07-31T09:25:03.036Z,28.80
2018-07-31T09:27:31.392Z,28.80
2018-07-31T09:30:00.305Z,28.79
2018-07-31T09:32:28.623Z,28.83
2018-07-31T09:34:56.489Z,28.83
2018-07-31T09:37:25.384Z,28.87
2018-07-31T09:39:53.782Z,28.92
2018-07-31T09:42:22.157Z,28.94
2018-07-31T09:44:50.623Z,28.96
2018-07-31T09:47:18.996Z,28.96
2018-07-31T09:49:47.339Z,28.97
2018-07-31T09:52:16.911Z,28.99
2018-07-31T09:54:45.296Z,29.03
2018-07-31T09:57:13.688Z,29.04
2018-07-31T09:59:41.942Z,29.04
2018-07-31T10:02:10.274Z,29.05
2018-07-31T10:04:38.147Z,29.06
2018-07-31T10:07:16.735Z,29.01
2018-07-31T10:09:41.950Z,29.11
2018-07-31T10:12:10.464Z,29.19
2018-07-31T10:14:38.803Z,29.22
2018-07-31T10:17:07.224Z,29.21
2018-07-31T10:19:34.921Z,29.24
2018-07-31T10:22:03.844Z,29.28
2018-07-31T10:24:32.327Z,29.29
2018-07-31T10:27:00.014Z,29.32
2018-07-31T10:29:28.935Z,29.33
2018-07-31T10:31:56.678Z,29.43
2018-07-31T10:34:25.603Z,29.48
2018-07-31T10:36:54.019Z,29.51
2018-07-31T10:39:22.357Z,29.53
2018-07-31T10:41:50.837Z,29.55
2018-07-31T10:44:19.172Z,29.60
2018-07-31T10:46:46.937Z,29.63
2018-07-31T10:49:15.953Z,29.64
2018-07-31T10:51:43.753Z,29.63
2018-07-31T10:54:12.660Z,29.67
2018-07-31T10:56:41.108Z,29.73
2018-07-31T10:59:09.728Z,29.80
2018-07-31T11:01:37.767Z,29.85
2018-07-31T11:04:05.612Z,29.89
2018-07-31T11:06:34.551Z,29.95
2018-07-31T11:09:02.951Z,29.99
2018-07-31T11:11:31.351Z,30.04
2018-07-31T11:13:59.111Z,30.14
2018-07-31T11:16:28.108Z,30.21
2018-07-31T11:18:56.427Z,30.25
2018-07-31T11:21:24.844Z,30.33
2018-07-31T11:23:53.171Z,30.37
2018-07-31T11:26:21.550Z,30.45
2018-07-31T11:28:49.913Z,30.52
2018-07-31T11:31:18.242Z,30.60
2018-07-31T11:33:46.673Z,30.68
2018-07-31T11:36:15.011Z,30.74
2018-07-31T11:38:43.404Z,30.81
2018-07-31T11:41:11.214Z,30.90
2018-07-31T11:43:40.196Z,30.99
2018-07-31T11:46:08.636Z,31.07
2018-07-31T11:48:36.959Z,31.22
2018-07-31T11:51:05.282Z,31.35
2018-07-31T11:53:33.057Z,31.49
2018-07-31T11:56:01.964Z,31.55
2018-07-31T11:58:30.317Z,31.63
2018-07-31T12:00:58.659Z,31.76
2018-07-31T12:03:27.061Z,31.81
2018-07-31T12:05:55.402Z,31.90
2018-07-31T12:08:23.740Z,31.95
2018-07-31T12:10:52.077Z,32.00
2018-07-31T12:13:21.561Z,32.12
2018-07-31T12:15:49.923Z,32.28
2018-07-31T12:18:18.315Z,32.40
2018-07-31T12:20:46.678Z,32.49
2018-07-31T12:23:14.968Z,32.52
2018-07-31T12:25:42.720Z,32.57
2018-07-31T12:28:11.684Z,32.64
2018-07-31T12:30:40.028Z,32.81
2018-07-31T12:33:08.509Z,32.95
2018-07-31T12:35:36.783Z,33.01
2018-07-31T12:38:05.202Z,33.12
2018-07-31T12:40:37.857Z,33.25
2018-07-31T12:43:01.283Z,33.36
2018-07-31T12:45:30.209Z,33.48
2018-07-31T12:47:58.537Z,33.55
2018-07-31T12:50:26.404Z,33.65
2018-07-31T12:52:54.643Z,33.75
2018-07-31T12:55:32.898Z,33.92
2018-07-31T12:58:00.737Z,34.16
2018-07-31T13:00:29.670Z,34.23
2018-07-31T13:02:58.011Z,34.28
2018-07-31T13:05:26.566Z,34.47
2018-07-31T13:07:54.128Z,34.54
2018-07-31T13:10:22.465Z,34.74
2018-07-31T13:12:51.413Z,34.90
2018-07-31T13:15:19.401Z,35.02
2018-07-31T13:17:48.161Z,35.13
2018-07-31T13:20:16.525Z,35.26
2018-07-31T13:22:44.851Z,35.23
2018-07-31T13:25:13.126Z,35.22
2018-07-31T13:27:41.584Z,35.35
2018-07-31T13:30:10.314Z,35.47
2018-07-31T13:32:38.415Z,35.54
2018-07-31T13:35:06.760Z,35.67
2018-07-31T13:37:35.115Z,35.82
2018-07-31T13:40:02.864Z,35.83
2018-07-31T13:42:31.219Z,35.95
2018-07-31T13:45:00.152Z,35.99
2018-07-31T13:47:28.536Z,36.14
2018-07-31T13:49:56.880Z,36.20
2018-07-31T13:52:25.221Z,36.35
2018-07-31T13:54:53.901Z,36.49
2018-07-31T13:57:29.581Z,36.46
2018-07-31T13:59:50.721Z,36.59
2018-07-31T14:02:19.052Z,36.69
2018-07-31T14:04:50.599Z,36.63
2018-07-31T14:07:18.995Z,36.81
2018-07-31T14:09:47.321Z,36.87
2018-07-31T14:12:15.672Z,37.00
2018-07-31T14:14:44.030Z,37.15
2018-07-31T14:17:11.788Z,37.29
2018-07-31T14:19:40.828Z,37.43
2018-07-31T14:22:09.162Z,37.47
2018-07-31T14:24:38.346Z,37.56
2018-07-31T14:27:05.852Z,37.50
2018-07-31T14:32:30.740Z,37.79
2018-07-31T14:34:59.855Z,37.75
2018-07-31T14:37:29.010Z,37.65
2018-07-31T14:39:57.367Z,37.77
2018-07-31T14:42:25.705Z,37.76
2018-07-31T14:44:53.831Z,37.54
2018-07-31T14:50:21.240Z,37.65
2018-07-31T14:52:49.584Z,38.10
2018-07-31T14:55:17.934Z,38.41
2018-07-31T14:57:45.879Z,38.29
2018-07-31T15:00:14.765Z,38.28
2018-07-31T15:02:43.134Z,38.40
2018-07-31T15:05:11.958Z,38.55
2018-07-31T15:07:51.732Z,38.65
2018-07-31T15:10:23.789Z,38.74
2018-07-31T15:12:51.525Z,38.57
2018-07-31T15:15:20.469Z,38.35
2018-07-31T15:17:49.051Z,38.29
2018-07-31T15:20:17.225Z,38.37
2018-07-31T15:22:44.946Z,38.62
2018-07-31T15:25:14.809Z,38.72
2018-07-31T15:27:42.229Z,38.81
2018-07-31T15:30:11.072Z,39.07
2018-07-31T15:32:40.090Z,39.06
2018-07-31T15:35:08.509Z,39.19
2018-07-31T15:37:36.895Z,39.28
2018-07-31T15:40:05.241Z,39.16
2018-07-31T15:42:33.607Z,39.05
2018-07-31T15:45:02.138Z,39.08
2018-07-31T15:47:31.732Z,38.94
2018-07-31T15:49:59.851Z,38.68
2018-07-31T15:52:28.349Z,38.52
2018-07-31T15:54:56.642Z,38.52
2018-07-31T15:57:25.072Z,38.65
2018-07-31T15:59:53.389Z,38.60
2018-07-31T16:02:21.741Z,38.68
2018-07-31T16:05:09.401Z,38.95
2018-07-31T16:07:23.681Z,39.30
2018-07-31T16:09:52.044Z,39.46
2018-07-31T16:12:20.396Z,39.59
2018-07-31T16:14:48.826Z,39.29
2018-07-31T16:17:17.329Z,39.21
2018-07-31T16:19:45.576Z,39.10
2018-07-31T16:22:13.930Z,39.17
2018-07-31T16:24:42.272Z,39.11
2018-07-31T16:27:10.632Z,39.02
2018-07-31T16:29:39.204Z,39.13
2018-07-31T16:32:07.385Z,39.10
2018-07-31T16:34:35.294Z,39.08
2018-07-31T16:37:04.245Z,38.96
2018-07-31T16:39:32.006Z,38.70
2018-07-31T16:42:00.949Z,38.04
2018-07-31T16:44:29.297Z,37.36
2018-07-31T16:46:57.712Z,36.70
2018-07-31T16:49:26.053Z,36.09
2018-07-31T16:51:54.381Z,35.63
2018-07-31T16:54:22.724Z,35.29
2018-07-31T16:56:51.894Z,34.90
2018-07-31T16:59:19.421Z,34.58
2018-07-31T17:01:47.763Z,34.34
2018-07-31T17:04:16.249Z,34.15
2018-07-31T17:06:44.574Z,33.91
2018-07-31T17:09:12.468Z,33.61
2018-07-31T17:11:41.307Z,33.49
2018-07-31T17:14:09.650Z,33.42
2018-07-31T17:16:37.550Z,33.34
2018-07-31T17:19:06.338Z,33.19
2018-07-31T17:21:34.743Z,33.06
2018-07-31T17:24:03.114Z,32.95
2018-07-31T17:26:33.437Z,32.80
2018-07-31T17:29:01.786Z,32.60
2018-07-31T17:31:30.124Z,32.46
2018-07-31T17:33:57.982Z,32.29
2018-07-31T17:36:26.946Z,32.14
2018-07-31T17:38:55.291Z,32.00
2018-07-31T17:41:23.036Z,31.88
2018-07-31T17:43:51.972Z,31.77
2018-07-31T17:46:21.189Z,31.67
2018-07-31T17:48:50.454Z,31.58
2018-07-31T17:51:18.814Z,31.55
2018-07-31T17:53:46.574Z,31.53
2018-07-31T17:56:15.520Z,31.53
2018-07-31T17:58:43.470Z,31.50
2018-07-31T18:01:13.185Z,31.48
2018-07-31T18:03:41.597Z,31.53
2018-07-31T18:06:11.204Z,31.58
2018-07-31T18:08:38.291Z,31.64
2018-07-31T18:11:06.020Z,31.66
2018-07-31T18:13:34.950Z,31.64
2018-07-31T18:16:03.561Z,31.57
2018-07-31T18:18:31.890Z,31.45
2018-07-31T18:21:00.229Z,31.38
2018-07-31T18:23:28.635Z,31.37
2018-07-31T18:26:13.893Z,31.39
2018-07-31T18:28:42.252Z,31.37
2018-07-31T18:31:10.015Z,31.29
2018-07-31T18:33:44.609Z,31.25
2018-07-31T18:36:12.955Z,31.24
2018-07-31T18:38:41.333Z,31.21
2018-07-31T18:41:09.795Z,31.21
2018-07-31T18:43:37.431Z,31.15
2018-07-31T18:46:05.748Z,31.08
2018-07-31T18:48:34.669Z,30.95
2018-07-31T18:51:02.999Z,30.81
2018-07-31T18:53:42.999Z,30.69
2018-07-31T18:56:08.715Z,30.65
2018-07-31T18:58:37.612Z,30.63
2018-07-31T19:01:05.545Z,30.63
2018-07-31T19:03:34.417Z,30.60
2018-07-31T19:06:02.202Z,30.53
2018-07-31T19:08:31.180Z,30.45
2018-07-31T19:10:59.532Z,30.42
2018-07-31T19:13:27.865Z,30.39
2018-07-31T19:15:56.214Z,30.33
2018-07-31T19:18:24.537Z,30.26
2018-07-31T19:20:52.877Z,30.17
2018-07-31T19:23:20.633Z,30.17
2018-07-31T19:25:49.576Z,30.07
2018-07-31T19:28:17.970Z,30.03
2018-07-31T19:30:45.677Z,29.91
2018-07-31T19:33:14.662Z,29.83
2018-07-31T19:35:42.948Z,29.74
2018-07-31T19:38:14.366Z,29.53
2018-07-31T19:40:39.935Z,29.30
2018-07-31T19:43:11.424Z,29.21
2018-07-31T19:45:42.304Z,29.23
2018-07-31T19:48:10.894Z,29.29
2018-07-31T19:50:51.291Z,29.37
2018-07-31T19:53:19.625Z,29.43
2018-07-31T19:55:47.981Z,29.47
2018-07-31T19:58:15.761Z,29.47
2018-07-31T20:00:44.669Z,29.51
2018-07-31T20:03:13.012Z,29.45
2018-07-31T20:05:43.091Z,29.27
2018-07-31T20:08:11.596Z,29.08
2018-07-31T20:10:39.901Z,28.90
2018-07-31T20:13:09.622Z,28.74
2018-07-31T20:15:36.861Z,28.66
2018-07-31T20:18:05.109Z,28.63
2018-07-31T20:20:32.865Z,28.65
2018-07-31T20:23:01.821Z,28.63
2018-07-31T20:25:37.616Z,28.60
2018-07-31T20:28:08.545Z,28.49
2018-07-31T20:30:36.932Z,28.48
2018-07-31T20:33:08.270Z,28.53
2018-07-31T20:35:38.393Z,28.53
2018-07-31T20:38:06.717Z,28.58
2018-07-31T20:40:34.686Z,28.65
2018-07-31T20:43:02.821Z,28.73
2018-07-31T20:45:31.190Z,28.82
2018-07-31T20:47:59.521Z,28.81
2018-07-31T20:50:34.679Z,28.74
2018-07-31T20:53:01.230Z,28.54
2018-07-31T20:55:30.152Z,28.53
2018-07-31T20:57:58.588Z,28.53
2018-07-31T21:00:26.941Z,28.43
2018-07-31T21:02:54.825Z,28.27
2018-07-31T21:05:27.441Z,28.25
2018-07-31T21:07:56.427Z,28.22
2018-07-31T21:10:24.751Z,28.24
2018-07-31T21:13:04.691Z,28.19
2018-07-31T21:15:38.734Z,28.15
2018-07-31T21:20:40.756Z,27.98
2018-07-31T21:23:09.167Z,27.97
2018-07-31T21:25:37.911Z,27.94
2018-07-31T21:28:06.252Z,27.83
2018-07-31T21:30:34.642Z,27.70
2018-07-31T21:33:02.995Z,27.55
2018-07-31T21:35:31.336Z,27.38
2018-07-31T21:46:50.311Z,27.04
2018-07-31T21:49:18.674Z,26.95
2018-07-31T21:51:46.445Z,26.90
2018-07-31T21:54:15.380Z,26.85
2018-07-31T21:56:43.149Z,26.82
2018-07-31T21:59:12.101Z,26.78
2018-07-31T22:01:51.246Z,26.71
2018-07-31T22:04:20.230Z,26.67
2018-07-31T22:06:50.647Z,26.57
2018-07-31T22:09:19.051Z,26.47
2018-07-31T22:11:47.428Z,26.44
2018-07-31T22:14:15.847Z,26.38
2018-07-31T22:16:44.221Z,26.33
2018-07-31T22:19:12.590Z,26.33
2018-07-31T22:21:40.972Z,26.31
2018-07-31T22:24:09.365Z,26.29
2018-07-31T22:26:37.744Z,26.26
2018-07-31T22:29:06.115Z,26.21
2018-07-31T22:31:34.494Z,26.17
2018-07-31T22:34:02.886Z,26.14
2018-07-31T22:36:31.272Z,26.10
2018-07-31T22:39:11.696Z,26.10
2018-07-31T22:41:34.905Z,26.20
2018-07-31T22:44:03.386Z,26.26
2018-07-31T22:46:31.750Z,26.24
2018-07-31T22:49:00.483Z,26.26
2018-07-31T22:51:28.854Z,26.27
2018-07-31T22:53:57.230Z,26.30
2018-07-31T22:56:31.805Z,26.27
2018-07-31T22:59:01.527Z,26.17
2018-07-31T23:04:24.752Z,26.06
2018-07-31T23:06:53.124Z,25.97
2018-07-31T23:09:21.525Z,25.97
2018-07-31T23:11:49.903Z,25.96
2018-07-31T23:14:18.291Z,26.01
2018-07-31T23:16:46.671Z,26.01
2018-07-31T23:19:15.074Z,25.98
2018-07-31T23:21:44.372Z,26.01
2018-07-31T23:24:12.754Z,25.94
2018-07-31T23:26:41.157Z,25.85
2018-07-31T23:29:09.568Z,25.86
2018-07-31T23:31:37.973Z,25.86
2018-07-31T23:34:06.393Z,25.83
2018-07-31T23:36:34.793Z,25.81
2018-07-31T23:39:03.224Z,25.88
2018-07-31T23:41:31.653Z,25.96
2018-07-31T23:44:00.034Z,26.10
2018-07-31T23:46:28.411Z,26.25
2018-07-31T23:48:56.784Z,26.38
2018-07-31T23:51:25.182Z,26.43
2018-07-31T23:53:53.560Z,26.43
2018-07-31T23:56:21.971Z,26.48
2018-07-31T23:58:50.384Z,26.47
